Aeroporto :
LOGIN :

Iscrizione | Disclaimer

   EN    FR    IT 

 










Sommario :    VFR   VFR Marginale   IFR   IFR Intensivo   IFR Molto Intensivo
Visibilità : 
Base nubi : 
>= 8 km
>= 3000ft
5 / 8 km
1000 / 3000 ft
1500m / 5 km
500 / 1000 ft
800 / 1500m
200 / 500 ft
< 800m
< 200 ft
Simboli :   Temporali  Nebbia  Neve Forte  Precipitazioni Forti  Vento > 20 kt
SIGMETs :   Varie  Temporali  Ghiacco  Turbolenza  Onda orograficha  Ceneri Vulcaniche






- Altitudine del aeroporto : 3 ft
- Codice IATA : LWR


EHLW - Leuuwarden Air Base

ULTIMO METAR :
  • 080955Z AUTO VRB02KT 9999 OVC350 17/09 Q1025 BLU VRB02KT CAVOK

METARs OBSOLETI :
  • 080925Z AUTO VRB01KT 9999 OVC220 16/08 Q1026 BLU VRB02KT CAVOK
  • 080855Z AUTO VRB02KT 9999 BKN220 15/08 Q1026 BLU VRB02KT CAVOK
  • 080825Z AUTO 16003KT 180V250 9999 OVC220 14/08 Q1026 BLU VRB02KT CAVOK
  • 080755Z AUTO VRB02KT 9999 OVC220 14/06 Q1026 BLU VRB02KT CAVOK
  • 080725Z AUTO 16002KT 9999 OVC230 12/06 Q1026 BLU VRB02KT CAVOK

TAF TAF EHLW
Valido dal 08 a 09 ore il 08 a 21 ore UTC


080816Z 0809/0821 17004KT CAVOK
BECMG 0809/0811 27004KT
BECMG 0812/0815 35006KT



MetMap, La meteo Aeronautica in un colpo d'occhio ! - Copyright ORBIFLY Dicembre 2007 - Disclaimer

ORBIFLY MET'MAP TEAM :

Programmazione e sviluppo : Alexandra Zaïnal
Concezione : Baudouin d'Aumeries
Aiuto per la programmazione : Marc-Olivier Méhu
Supporto tecnico e logistico : Manuel Goepfert
Aiuto per la traduzione : Arnaldo La Scala

Contatto : metmap@orbifly.com




FONTI E CREDITI :

   NOAA